Time;durP1;ratioP1;P1;durP2;ratioP2;P2;SDS_P1;SDS_P2;PMS_P1;PMS_P2;Temp;Humidity;BMP_temperature;BMP_pressure;BME280_temperature;BME280_humidity;BME280_pressure;Samples;Min_cycle;Max_cycle;Signal;HPM_P1;HPM_P2
2020/12/19 00:01:47;;;;;;;;;;;;;;;;;;;;;
2020/12/19 00:07:18;;;;;;;9.35;4.30;;;5.70;89.70;;;;;;4922053;29;20048;-87
2020/12/19 00:10:13;;;;;;;10.85;5.38;;;5.70;89.80;;;;;;4903058;29;20372;-89
2020/12/19 00:12:48;;;;;;;10.63;4.30;;;5.60;90.30;;;;;;4898125;29;20048;-89
2020/12/19 00:15:25;;;;;;;12.48;4.82;;;5.70;90.10;;;;;;4905990;29;20124;-89
2020/12/19 00:17:54;;;;;;;13.00;5.80;;;5.70;90.30;;;;;;4904547;29;20048;-88
2020/12/19 00:20:30;;;;;;;7.38;3.88;;;5.60;90.30;;;;;;4931845;29;20071;-88
2020/12/19 00:23:01;;;;;;;11.63;5.35;;;5.70;90.10;;;;;;4903263;29;20064;-89
2020/12/19 00:25:55;;;;;;;10.05;4.68;;;5.70;90.10;;;;;;4924898;29;20063;-88
2020/12/19 00:28:31;;;;;;;10.73;4.78;;;5.60;90.10;;;;;;4918418;29;20052;-87
2020/12/19 00:31:08;;;;;;;11.93;4.97;;;5.60;90.10;;;;;;4922053;29;20064;-88
2020/12/19 00:33:38;;;;;;;13.23;5.70;;;5.50;90.70;;;;;;4920847;29;20049;-87
2020/12/19 00:36:10;;;;;;;13.00;5.00;;;5.40;90.70;;;;;;4901695;29;20116;-87
2020/12/19 00:38:46;;;;;;;14.45;5.25;;;5.30;91.00;;;;;;4885886;29;20113;-88
2020/12/19 00:41:25;;;;;;;9.82;4.88;;;5.20;91.40;;;;;;4901016;29;20060;-90
2020/12/19 00:44:09;;;;;;;12.40;5.03;;;5.10;91.70;;;;;;4922192;29;20063;-89
2020/12/19 00:46:48;;;;;;;11.50;5.47;;;5.10;91.80;;;;;;4922653;29;20058;-88
2020/12/19 00:49:30;;;;;;;11.35;5.38;;;5.10;92.00;;;;;;4930170;29;20056;-88
2020/12/19 00:52:00;;;;;;;12.57;4.65;;;5.10;92.20;;;;;;4920631;29;20056;-89
2020/12/19 00:54:52;;;;;;;12.82;5.38;;;5.10;92.20;;;;;;4920865;29;20055;-89
2020/12/19 00:57:39;;;;;;;11.45;4.78;;;5.20;92.20;;;;;;4902348;29;20048;-89
2020/12/19 01:00:12;;;;;;;11.48;5.40;;;5.30;91.60;;;;;;4916119;29;20052;-91
2020/12/19 01:02:43;;;;;;;12.15;5.88;;;5.30;91.60;;;;;;4907936;29;20060;-88
2020/12/19 01:05:20;;;;;;;11.45;4.57;;;5.40;91.30;;;;;;4920554;29;20064;-88
2020/12/19 01:08:00;;;;;;;9.23;4.80;;;5.50;91.10;;;;;;4902664;29;20115;-88
2020/12/19 01:10:46;;;;;;;9.23;5.05;;;5.50;91.10;;;;;;4906108;29;20134;-89
2020/12/19 01:13:21;;;;;;;10.77;4.57;;;5.50;90.70;;;;;;4919812;29;20064;-88
2020/12/19 01:16:18;;;;;;;11.45;4.50;;;5.50;90.80;;;;;;4907489;29;20048;-89
2020/12/19 01:18:58;;;;;;;9.77;4.10;;;5.50;90.70;;;;;;4911691;29;20073;-90
2020/12/19 01:21:41;;;;;;;10.40;5.50;;;5.40;90.70;;;;;;4920713;29;20056;-87
2020/12/19 01:24:41;;;;;;;12.38;5.43;;;5.30;90.70;;;;;;4915569;29;20059;-88
2020/12/19 01:27:25;;;;;;;13.25;5.22;;;5.20;91.00;;;;;;4908845;29;20056;-88
2020/12/19 01:30:03;;;;;;;10.65;4.53;;;5.10;91.40;;;;;;4925730;29;20064;-89
2020/12/19 01:32:33;;;;;;;9.40;4.65;;;5.00;91.60;;;;;;4904253;29;20052;-89
2020/12/19 01:35:03;;;;;;;9.75;5.00;;;4.90;91.90;;;;;;4932929;29;20059;-88
2020/12/19 01:37:43;;;;;;;12.45;5.07;;;4.90;91.70;;;;;;4929777;29;20048;-88
2020/12/19 01:40:34;;;;;;;10.38;4.80;;;4.90;91.80;;;;;;4897532;29;20060;-88
2020/12/19 01:43:10;;;;;;;9.98;5.53;;;4.80;92.10;;;;;;4920690;29;20048;-89
2020/12/19 01:46:17;;;;;;;13.88;5.25;;;4.80;92.20;;;;;;4908869;29;20048;-88
2020/12/19 01:48:59;;;;;;;9.93;5.57;;;4.70;92.40;;;;;;4911492;29;20052;-88
2020/12/19 01:52:01;;;;;;;12.13;6.00;;;4.80;92.30;;;;;;4919650;29;20056;-87
2020/12/19 01:54:37;;;;;;;14.07;6.47;;;4.90;92.00;;;;;;4917214;29;20056;-88
2020/12/19 01:57:32;;;;;;;9.88;5.15;;;5.00;91.80;;;;;;4917324;29;20108;-87
2020/12/19 02:00:19;;;;;;;12.10;4.53;;;5.00;91.50;;;;;;4919881;29;20053;-88
2020/12/19 02:02:48;;;;;;;13.23;5.38;;;4.90;91.50;;;;;;4910514;29;20044;-88
2020/12/19 02:05:31;;;;;;;13.07;5.78;;;5.00;91.50;;;;;;4899709;29;20059;-88
2020/12/19 02:08:26;;;;;;;12.63;5.85;;;5.00;91.40;;;;;;4919507;29;20054;-90
2020/12/19 02:11:14;;;;;;;9.38;5.38;;;5.10;91.00;;;;;;4903368;29;20076;-88
2020/12/19 02:13:54;;;;;;;14.77;6.47;;;5.20;90.90;;;;;;4917315;29;20045;-88
2020/12/19 02:16:40;;;;;;;12.65;5.47;;;5.30;90.40;;;;;;4895776;29;20343;-85
2020/12/19 02:19:13;;;;;;;13.60;6.05;;;5.30;90.50;;;;;;4909716;29;20055;-90
2020/12/19 02:22:03;;;;;;;11.98;5.75;;;5.40;90.60;;;;;;4917466;29;20056;-89
2020/12/19 02:24:46;;;;;;;10.63;5.82;;;5.30;90.60;;;;;;4905505;29;20071;-87
2020/12/19 02:27:14;;;;;;;14.32;6.13;;;5.30;90.60;;;;;;4901028;29;20131;-88
2020/12/19 02:29:55;;;;;;;13.10;6.43;;;5.30;90.40;;;;;;4917405;29;20271;-90
2020/12/19 02:32:25;;;;;;;12.23;6.97;;;5.20;90.40;;;;;;4890751;29;20060;-90
2020/12/19 02:35:02;;;;;;;14.27;6.00;;;5.20;90.50;;;;;;4902141;29;20060;-87
2020/12/19 02:37:47;;;;;;;12.98;7.80;;;5.20;90.60;;;;;;4912741;29;20127;-87
2020/12/19 02:40:28;;;;;;;13.23;6.68;;;5.20;90.60;;;;;;4902211;29;20116;-87
2020/12/19 02:43:03;;;;;;;13.00;5.78;;;5.20;90.50;;;;;;4915918;29;20052;-87
2020/12/19 02:45:32;;;;;;;13.52;6.07;;;5.30;90.50;;;;;;4917764;29;20049;-87
2020/12/19 02:47:59;;;;;;;12.88;6.05;;;5.30;90.50;;;;;;4917769;29;20044;-88
2020/12/19 02:50:38;;;;;;;10.75;4.85;;;5.30;90.20;;;;;;4902598;29;20411;-87
2020/12/19 02:53:18;;;;;;;10.68;5.28;;;5.30;90.10;;;;;;4910941;29;20056;-88
2020/12/19 02:55:51;;;;;;;12.45;6.05;;;5.30;89.90;;;;;;4931073;29;20053;-87
2020/12/19 03:01:27;;;;;;;10.95;5.82;;;5.30;89.90;;;;;;4916359;29;20047;-88
2020/12/19 03:03:57;;;;;;;11.50;5.70;;;5.30;89.80;;;;;;4917813;29;20068;-89
2020/12/19 03:06:34;;;;;;;10.82;4.68;;;5.30;89.70;;;;;;4917572;29;20045;-89
2020/12/19 03:09:26;;;;;;;10.68;5.30;;;5.30;89.80;;;;;;4902848;29;20049;-88
2020/12/19 03:12:15;;;;;;;11.75;5.40;;;5.20;89.70;;;;;;4908077;29;20052;-88
2020/12/19 03:14:43;;;;;;;12.70;5.95;;;5.10;90.00;;;;;;4901352;29;20048;-89
2020/12/19 03:17:29;;;;;;;9.75;5.00;;;5.00;90.40;;;;;;4900573;29;20063;-88
2020/12/19 03:20:05;;;;;;;14.25;6.13;;;4.80;90.70;;;;;;4917187;29;20055;-89
2020/12/19 03:22:42;;;;;;;10.90;5.38;;;4.70;91.00;;;;;;4917410;29;20053;-89
2020/12/19 03:25:28;;;;;;;9.93;5.13;;;4.70;91.20;;;;;;4916206;29;20053;-89
2020/12/19 03:28:05;;;;;;;10.68;4.95;;;4.70;91.40;;;;;;4919378;29;20383;-88
2020/12/19 03:30:40;;;;;;;9.52;5.35;;;4.60;91.40;;;;;;4917258;29;20052;-88
2020/12/19 03:33:19;;;;;;;7.63;4.20;;;4.50;91.70;;;;;;4905259;29;20089;-89
2020/12/19 03:36:01;;;;;;;9.98;4.45;;;4.40;91.90;;;;;;4901813;29;20055;-88
2020/12/19 03:38:41;;;;;;;11.32;6.55;;;4.40;91.90;;;;;;4901705;29;20152;-88
2020/12/19 03:41:23;;;;;;;11.43;6.28;;;4.30;92.10;;;;;;4913398;29;20048;-87
2020/12/19 03:44:11;;;;;;;10.43;5.57;;;4.30;92.30;;;;;;4908295;29;20083;-89
2020/12/19 03:46:55;;;;;;;11.18;5.05;;;4.30;92.30;;;;;;4929882;29;20068;-88
2020/12/19 03:49:33;;;;;;;11.32;5.20;;;4.30;92.50;;;;;;4917709;29;20093;-89
2020/12/19 03:52:09;;;;;;;9.80;4.57;;;4.20;92.60;;;;;;4917643;29;20068;-87
2020/12/19 03:54:49;;;;;;;10.95;4.97;;;4.20;92.70;;;;;;4902148;29;20056;-89
2020/12/19 03:57:27;;;;;;;11.65;6.45;;;4.20;92.70;;;;;;4902130;29;20053;-89
2020/12/19 04:00:14;;;;;;;14.05;6.00;;;4.30;92.50;;;;;;4902541;29;20064;-88
2020/12/19 04:02:57;;;;;;;9.63;4.30;;;4.50;92.10;;;;;;4915148;29;20153;-88
2020/12/19 04:05:32;;;;;;;12.20;5.03;;;4.50;91.80;;;;;;4917337;29;20049;-89
2020/12/19 04:08:00;;;;;;;12.50;5.75;;;4.50;91.60;;;;;;4920271;29;20052;-89
2020/12/19 04:10:32;;;;;;;10.75;5.38;;;4.40;91.60;;;;;;4917297;29;20047;-89
2020/12/19 04:13:26;;;;;;;13.18;6.20;;;4.40;91.80;;;;;;4917768;29;20055;-88
2020/12/19 04:16:04;;;;;;;11.18;6.05;;;4.30;91.80;;;;;;4904043;29;20096;-88
2020/12/19 04:18:34;;;;;;;9.75;4.30;;;4.20;91.90;;;;;;4919388;29;20048;-90
2020/12/19 04:21:03;;;;;;;13.25;5.68;;;4.20;92.10;;;;;;4901127;29;20060;-91
2020/12/19 04:23:41;;;;;;;9.82;5.15;;;4.20;92.20;;;;;;4902057;29;20045;-89
2020/12/19 04:26:19;;;;;;;10.15;4.82;;;4.20;92.20;;;;;;4906597;29;20076;-89
2020/12/19 04:28:52;;;;;;;13.20;6.57;;;4.20;92.20;;;;;;4917071;29;20048;-89
2020/12/19 04:31:48;;;;;;;10.90;6.25;;;4.20;92.10;;;;;;4904116;29;20056;-88
2020/12/19 04:34:30;;;;;;;12.82;5.85;;;4.20;91.90;;;;;;4930583;29;20059;-88
2020/12/19 04:37:05;;;;;;;12.50;5.90;;;4.20;92.00;;;;;;4933938;29;20107;-87
2020/12/19 04:39:46;;;;;;;12.55;5.80;;;4.20;91.90;;;;;;4897804;29;20051;-88
2020/12/19 04:42:27;;;;;;;11.13;5.80;;;4.20;91.90;;;;;;4911603;29;20060;-88
2020/12/19 04:45:11;;;;;;;9.82;5.93;;;4.20;91.90;;;;;;4901133;29;20053;-88
2020/12/19 04:47:43;;;;;;;11.13;5.40;;;4.20;91.90;;;;;;4920384;29;20056;-88
2020/12/19 04:50:44;;;;;;;9.02;4.32;;;4.20;91.80;;;;;;4904060;29;20045;-89
2020/12/19 04:53:23;;;;;;;8.68;4.78;;;4.20;91.90;;;;;;4912070;29;20243;-88
2020/12/19 04:56:06;;;;;;;10.93;6.45;;;4.30;91.10;;;;;;4921090;29;20052;-87
2020/12/19 04:58:46;;;;;;;12.25;6.15;;;4.40;91.10;;;;;;4920164;29;20124;-88
2020/12/19 05:01:24;;;;;;;10.85;5.60;;;4.40;90.80;;;;;;4922200;29;20048;-87
2020/12/19 05:03:59;;;;;;;9.25;5.00;;;4.40;90.80;;;;;;4914329;29;20078;-88
2020/12/19 05:06:28;;;;;;;13.27;6.25;;;4.40;90.50;;;;;;4904281;29;20100;-87
2020/12/19 05:09:15;;;;;;;11.10;5.05;;;4.30;90.50;;;;;;4921613;29;20043;-88
2020/12/19 05:12:07;;;;;;;12.30;5.68;;;4.30;90.50;;;;;;4905881;29;20055;-87
2020/12/19 05:14:38;;;;;;;10.40;5.03;;;4.30;90.70;;;;;;4920828;29;20136;-88
2020/12/19 05:17:10;;;;;;;9.63;4.85;;;4.30;90.70;;;;;;4929502;29;20056;-87
2020/12/19 05:19:40;;;;;;;9.25;4.78;;;4.30;90.70;;;;;;4920031;29;20168;-88
2020/12/19 05:25:40;;;;;;;;;;;4.40;90.40;;;;;;4911150;29;20378;-87
2020/12/19 05:28:16;;;;;;;8.50;4.50;;;4.50;90.10;;;;;;4918776;29;19916;-88
2020/12/19 05:30:58;;;;;;;10.45;5.32;;;4.50;89.70;;;;;;4915739;29;20049;-88
2020/12/19 05:33:42;;;;;;;12.02;5.22;;;4.50;89.80;;;;;;4913654;29;20057;-89
2020/12/19 05:36:28;;;;;;;11.15;4.85;;;4.60;89.60;;;;;;4904735;29;20045;-88
2020/12/19 05:39:04;;;;;;;12.02;5.22;;;4.50;89.40;;;;;;4904204;29;20048;-89
2020/12/19 05:41:39;;;;;;;11.07;5.22;;;4.60;89.70;;;;;;4903204;29;20252;-87
2020/12/19 05:44:10;;;;;;;11.45;5.80;;;4.60;89.20;;;;;;4919991;29;20056;-85
2020/12/19 05:47:13;;;;;;;10.23;5.35;;;4.50;89.40;;;;;;4909665;29;20036;-87
2020/12/19 05:49:56;;;;;;;12.13;5.28;;;4.40;89.50;;;;;;4913937;29;20052;-88
2020/12/19 05:52:36;;;;;;;10.50;5.50;;;4.30;89.80;;;;;;4915298;29;20048;-87
2020/12/19 05:55:09;;;;;;;10.25;5.28;;;4.30;90.10;;;;;;4926578;29;20057;-89
2020/12/19 05:57:53;;;;;;;7.75;4.60;;;4.20;90.30;;;;;;4918136;29;20358;-88
2020/12/19 06:00:26;;;;;;;10.63;5.30;;;4.30;90.20;;;;;;4909128;29;20056;-89
2020/12/19 06:03:02;;;;;;;11.07;5.15;;;4.30;89.80;;;;;;4922434;29;20076;-86
2020/12/19 06:05:36;;;;;;;11.00;5.85;;;4.30;89.70;;;;;;4888347;29;20065;-89
2020/12/19 06:08:19;;;;;;;9.10;4.93;;;4.40;89.60;;;;;;4917529;29;20053;-87
2020/12/19 06:10:58;;;;;;;9.48;5.88;;;4.40;89.50;;;;;;4900952;29;20044;-88
2020/12/19 06:13:41;;;;;;;10.70;4.97;;;4.30;89.60;;;;;;4902971;29;20164;-88
2020/12/19 06:16:36;;;;;;;9.70;5.15;;;4.30;89.50;;;;;;4921528;29;20115;-87
2020/12/19 06:19:29;;;;;;;9.70;4.90;;;4.30;89.40;;;;;;4919081;29;20068;-88
2020/12/19 06:22:18;;;;;;;11.38;5.78;;;4.30;89.30;;;;;;4918302;29;20327;-88
2020/12/19 06:24:48;;;;;;;7.43;3.92;;;4.30;89.30;;;;;;4903671;29;20028;-88
2020/12/19 06:27:40;;;;;;;;;;;4.30;89.30;;;;;;4919670;29;20112;-88
2020/12/19 06:30:32;;;;;;;10.23;4.57;;;4.20;89.40;;;;;;4917110;29;19955;-87
2020/12/19 06:33:31;;;;;;;10.07;5.25;;;4.20;89.50;;;;;;4918464;29;20040;-87
2020/12/19 06:36:25;;;;;;;11.00;5.15;;;4.10;89.70;;;;;;4899436;29;20097;-89
2020/12/19 06:39:09;;;;;;;10.18;5.15;;;4.00;89.90;;;;;;4910934;29;20068;-89
2020/12/19 06:41:52;;;;;;;11.35;5.80;;;3.90;90.20;;;;;;4919148;29;20116;-87
2020/12/19 06:44:24;;;;;;;;;;;3.80;90.50;;;;;;4908199;29;20126;-88
2020/12/19 06:47:21;;;;;;;12.73;5.07;;;3.80;90.60;;;;;;4891036;29;19959;-89
2020/12/19 06:49:57;;;;;;;13.05;5.25;;;3.70;90.90;;;;;;4921567;29;20120;-87
2020/12/19 06:52:53;;;;;;;10.52;4.88;;;3.70;91.00;;;;;;4912137;29;20048;-85
2020/12/19 06:55:43;;;;;;;12.68;5.35;;;3.60;91.20;;;;;;4892106;29;20048;-87
2020/12/19 06:58:39;;;;;;;9.35;4.63;;;3.60;91.30;;;;;;4918713;29;20044;-87
2020/12/19 07:01:27;;;;;;;13.82;5.60;;;3.60;91.40;;;;;;4913314;29;20048;-86
2020/12/19 07:04:04;;;;;;;8.35;4.18;;;3.60;91.40;;;;;;4883941;29;20053;-90
2020/12/19 07:06:47;;;;;;;8.40;5.35;;;3.70;91.40;;;;;;4884512;29;20120;-87
2020/12/19 07:09:40;;;;;;;11.82;6.35;;;3.70;91.30;;;;;;4933811;29;20067;-88
2020/12/19 07:12:37;;;;;;;11.35;4.53;;;3.70;91.20;;;;;;4914314;29;20061;-89
2020/12/19 07:15:09;;;;;;;11.85;5.43;;;3.90;90.90;;;;;;4856568;29;20165;-88
2020/12/19 07:17:54;;;;;;;10.07;5.20;;;3.90;90.60;;;;;;4908589;29;20048;-89
2020/12/19 07:20:29;;;;;;;11.70;4.95;;;4.00;90.50;;;;;;4907471;29;20048;-88
2020/12/19 07:22:57;;;;;;;9.95;4.55;;;4.00;90.40;;;;;;4903192;29;20052;-88
2020/12/19 07:25:34;;;;;;;12.15;5.07;;;4.10;90.60;;;;;;4910578;29;20044;-85
2020/12/19 07:28:25;;;;;;;9.95;4.28;;;4.10;90.40;;;;;;4902829;29;20055;-88
2020/12/19 07:31:38;;;;;;;8.57;4.50;;;4.10;90.40;;;;;;4927854;29;20079;-88
2020/12/19 07:34:09;;;;;;;10.82;5.10;;;4.20;90.10;;;;;;4919016;29;20057;-88
2020/12/19 07:36:55;;;;;;;10.02;5.28;;;4.00;90.00;;;;;;4918279;29;20108;-89
2020/12/19 07:39:23;;;;;;;;;;;4.00;90.30;;;;;;4915734;29;20056;-87
2020/12/19 07:42:13;;;;;;;9.15;4.70;;;4.00;90.30;;;;;;4916970;29;19919;-87
2020/12/19 07:44:57;;;;;;;10.35;4.82;;;4.00;90.10;;;;;;4901069;29;20052;-88
2020/12/19 07:47:34;;;;;;;10.68;4.72;;;4.10;90.20;;;;;;4915437;29;20045;-87
2020/12/19 07:50:10;;;;;;;10.80;5.15;;;4.10;89.80;;;;;;4917745;29;20060;-88
2020/12/19 07:52:45;;;;;;;12.93;5.93;;;4.10;90.10;;;;;;4901628;29;20120;-88
2020/12/19 07:55:19;;;;;;;10.82;4.63;;;4.20;90.10;;;;;;4906976;29;20048;-88
2020/12/19 07:57:55;;;;;;;12.32;5.50;;;4.20;89.80;;;;;;4918289;29;20143;-89
2020/12/19 08:00:34;;;;;;;11.13;4.57;;;4.20;89.50;;;;;;4921122;29;20073;-88
2020/12/19 08:03:11;;;;;;;18.10;6.97;;;4.20;89.20;;;;;;4912987;29;20060;-86
2020/12/19 08:06:01;;;;;;;12.73;6.10;;;4.10;89.60;;;;;;4918138;29;20355;-87
2020/12/19 08:12:41;;;;;;;10.20;5.28;;;4.00;90.10;;;;;;4902505;29;20100;-87
2020/12/19 08:15:47;;;;;;;13.50;5.25;;;3.90;90.40;;;;;;4897758;29;20032;-88
2020/12/19 08:18:22;;;;;;;10.88;4.65;;;3.90;90.40;;;;;;4902574;29;20053;-89
2020/12/19 08:21:09;;;;;;;15.90;7.20;;;3.90;90.40;;;;;;4903288;29;20040;-89
2020/12/19 08:23:54;;;;;;;12.40;5.55;;;3.90;90.60;;;;;;4931487;29;20073;-90
2020/12/19 08:26:36;;;;;;;12.15;4.70;;;3.90;90.50;;;;;;4906038;29;20053;-90
2020/12/19 08:29:10;;;;;;;16.83;7.28;;;3.90;90.70;;;;;;4888862;29;20043;-90
2020/12/19 08:31:52;;;;;;;11.25;6.47;;;3.90;90.80;;;;;;4922007;29;20056;-91
2020/12/19 08:34:24;;;;;;;10.65;4.85;;;4.00;90.70;;;;;;4912295;29;20048;-87
2020/12/19 08:36:52;;;;;;;10.23;4.93;;;4.20;90.20;;;;;;4922841;29;20064;-91
2020/12/19 08:39:29;;;;;;;13.82;5.40;;;4.30;89.90;;;;;;4894870;29;20372;-89
2020/12/19 08:42:09;;;;;;;11.82;5.93;;;4.40;89.40;;;;;;4899212;29;20056;-86
2020/12/19 08:44:54;;;;;;;13.40;5.75;;;4.40;89.50;;;;;;4921127;29;20115;-89
2020/12/19 08:47:37;;;;;;;13.38;6.57;;;4.40;89.50;;;;;;4913437;29;20052;-89
2020/12/19 08:50:26;;;;;;;10.82;5.50;;;4.60;89.10;;;;;;4905239;29;20045;-89
2020/12/19 08:53:10;;;;;;;12.27;5.55;;;4.50;89.00;;;;;;4905498;29;20052;-88
2020/12/19 08:55:54;;;;;;;10.85;4.22;;;4.50;88.70;;;;;;4904832;29;20077;-88
2020/12/19 08:58:32;;;;;;;12.13;4.40;;;4.40;88.90;;;;;;4920823;29;20082;-86
2020/12/19 09:01:30;;;;;;;14.90;6.72;;;4.40;88.80;;;;;;4924232;29;20065;-88
2020/12/19 09:04:09;;;;;;;12.10;5.57;;;4.50;89.10;;;;;;4914756;29;20065;-89
2020/12/19 09:07:23;;;;;;;;;;;;;;;;;;;;;
2020/12/19 09:10:41;;;;;;;14.15;5.10;;;4.80;87.50;;;;;;4906562;29;20048;-89
2020/12/19 09:13:23;;;;;;;12.07;5.47;;;4.70;87.70;;;;;;4908925;29;20117;-89
2020/12/19 09:16:04;;;;;;;15.00;5.40;;;4.60;88.20;;;;;;4915888;29;20200;-88
2020/12/19 09:18:43;;;;;;;10.10;5.85;;;4.70;88.00;;;;;;4918273;29;20088;-88
2020/12/19 09:21:17;;;;;;;10.75;4.75;;;4.60;88.20;;;;;;4920776;29;20115;-89
2020/12/19 09:23:46;;;;;;;20.13;10.70;;;4.70;88.10;;;;;;4921247;29;20092;-90
2020/12/19 09:26:16;;;;;;;15.07;7.05;;;4.80;88.40;;;;;;4913618;29;20088;-90
2020/12/19 09:28:47;;;;;;;13.00;5.72;;;5.00;87.80;;;;;;4921065;29;20044;-89
2020/12/19 09:31:19;;;;;;;10.80;5.32;;;5.20;87.30;;;;;;4916098;29;20044;-89
2020/12/19 09:33:55;;;;;;;9.82;5.07;;;5.20;86.50;;;;;;4917400;29;20048;-89
2020/12/19 09:36:25;;;;;;;11.20;5.35;;;5.20;86.80;;;;;;4905248;29;20048;-89
2020/12/19 09:38:54;;;;;;;11.05;4.93;;;5.20;86.60;;;;;;4923689;29;20055;-89
2020/12/19 09:41:24;;;;;;;10.77;5.05;;;5.50;86.00;;;;;;4921502;29;20056;-88
2020/12/19 09:43:59;;;;;;;8.25;4.60;;;5.70;85.70;;;;;;4919779;29;20060;-88
2020/12/19 09:46:38;;;;;;;9.18;5.05;;;5.70;85.40;;;;;;4920808;29;20059;-89
2020/12/19 09:49:07;;;;;;;10.15;4.70;;;5.70;85.30;;;;;;4919777;29;20063;-89
2020/12/19 09:51:36;;;;;;;9.90;4.57;;;5.70;85.00;;;;;;4891560;29;20060;-89
2020/12/19 09:54:14;;;;;;;12.77;6.10;;;5.70;85.20;;;;;;4929845;29;20048;-89
2020/12/19 09:56:42;;;;;;;13.38;4.65;;;5.70;85.20;;;;;;4924926;29;20052;-89
2020/12/19 09:59:20;;;;;;;11.95;5.20;;;5.70;85.20;;;;;;4927802;29;20063;-88
2020/12/19 10:01:53;;;;;;;11.27;5.10;;;5.70;84.70;;;;;;4902994;29;20100;-87
2020/12/19 10:04:23;;;;;;;9.38;4.72;;;6.10;84.20;;;;;;4903256;29;20056;-86
2020/12/19 10:06:52;;;;;;;13.90;6.13;;;6.10;82.80;;;;;;4899585;29;20052;-90
2020/12/19 10:09:23;;;;;;;10.70;4.38;;;6.10;83.20;;;;;;4916293;29;20052;-87
2020/12/19 10:11:55;;;;;;;9.13;4.63;;;6.10;82.60;;;;;;4896727;29;20096;-88
2020/12/19 10:14:28;;;;;;;8.55;4.63;;;6.20;83.00;;;;;;4920117;29;20060;-86
2020/12/19 10:17:00;;;;;;;11.93;5.70;;;6.30;83.10;;;;;;4890211;29;20049;-89
2020/12/19 10:19:32;;;;;;;9.93;4.50;;;6.30;82.10;;;;;;4893996;29;20053;-88
2020/12/19 10:22:13;;;;;;;12.30;5.05;;;6.20;82.40;;;;;;4917657;29;20062;-89
2020/12/19 10:24:59;;;;;;;8.63;4.25;;;6.10;83.30;;;;;;4918581;29;20080;-88
2020/12/19 10:27:26;;;;;;;11.65;5.53;;;6.00;83.10;;;;;;4919098;29;20056;-88
2020/12/19 10:29:53;;;;;;;13.15;3.88;;;5.80;83.70;;;;;;4918446;29;20084;-88
2020/12/19 10:32:22;;;;;;;9.73;3.88;;;6.00;83.40;;;;;;4910879;29;20065;-87
2020/12/19 10:34:51;;;;;;;10.18;4.88;;;6.00;83.30;;;;;;4918819;29;20049;-88
2020/12/19 10:37:23;;;;;;;12.67;5.23;;;6.10;83.00;;;;;;4919945;29;20128;-89
2020/12/19 10:39:57;;;;;;;10.10;4.22;;;6.00;83.70;;;;;;4903114;29;20045;-89
2020/12/19 10:42:55;;;;;;;11.18;4.85;;;6.10;83.10;;;;;;4903850;29;20123;-88
2020/12/19 10:45:22;;;;;;;10.02;4.20;;;6.10;82.80;;;;;;4894490;29;20052;-88
2020/12/19 10:47:52;;;;;;;12.55;5.00;;;6.10;83.20;;;;;;4898699;29;20080;-87
2020/12/19 10:50:20;;;;;;;9.90;4.35;;;5.90;83.60;;;;;;4910333;29;20120;-90
2020/12/19 10:52:47;;;;;;;12.05;5.38;;;5.90;83.60;;;;;;4916686;29;20067;-88
2020/12/19 10:55:21;;;;;;;11.20;4.45;;;5.70;84.00;;;;;;4921243;29;20047;-87
2020/12/19 10:57:48;;;;;;;14.77;5.60;;;5.90;84.10;;;;;;4902500;29;20045;-89
2020/12/19 11:00:17;;;;;;;8.57;4.45;;;6.00;83.50;;;;;;4921798;29;20059;-89
2020/12/19 11:02:45;;;;;;;10.07;4.20;;;6.10;82.80;;;;;;4923482;29;20051;-90
2020/12/19 11:05:24;;;;;;;10.60;5.25;;;6.00;83.20;;;;;;4934715;29;20056;-89
2020/12/19 11:07:53;;;;;;;9.40;4.05;;;5.90;83.70;;;;;;4915441;29;20056;-88
2020/12/19 11:10:24;;;;;;;11.50;4.68;;;6.10;83.70;;;;;;4902213;29;20044;-88
2020/12/19 11:12:54;;;;;;;8.27;3.85;;;6.00;83.30;;;;;;4930236;29;20083;-86
2020/12/19 11:15:23;;;;;;;9.45;4.28;;;5.90;83.30;;;;;;4921061;29;20048;-88
2020/12/19 11:18:02;;;;;;;10.95;4.10;;;5.90;83.80;;;;;;4902649;29;20052;-87
2020/12/19 11:20:30;;;;;;;9.20;4.38;;;6.00;83.60;;;;;;4917216;29;20051;-88
2020/12/19 11:22:58;;;;;;;10.80;4.53;;;6.00;83.80;;;;;;4907048;29;20052;-86
2020/12/19 11:25:28;;;;;;;9.07;3.90;;;6.00;83.80;;;;;;4918448;29;20120;-87
2020/12/19 11:27:58;;;;;;;9.90;4.27;;;5.90;83.70;;;;;;4901437;29;20056;-85
2020/12/19 11:30:28;;;;;;;10.13;4.00;;;5.80;84.30;;;;;;4918082;29;20044;-88
2020/12/19 11:32:56;;;;;;;9.07;3.85;;;5.80;84.10;;;;;;4918649;29;20041;-88
2020/12/19 11:35:27;;;;;;;10.55;4.47;;;5.90;83.80;;;;;;4902680;29;20263;-87
2020/12/19 11:37:56;;;;;;;10.05;4.18;;;5.80;84.00;;;;;;4917134;29;20048;-89
2020/12/19 11:40:27;;;;;;;8.30;4.03;;;5.80;84.20;;;;;;4918117;29;20052;-88
2020/12/19 11:42:56;;;;;;;8.75;4.03;;;5.90;84.20;;;;;;4917910;29;20077;-87
2020/12/19 11:45:24;;;;;;;10.35;4.22;;;6.00;83.60;;;;;;4916333;29;20305;-89
2020/12/19 11:48:11;;;;;;;10.57;4.13;;;6.10;83.80;;;;;;4917643;29;20056;-89
2020/12/19 11:50:42;;;;;;;10.07;4.65;;;6.00;83.60;;;;;;4917139;29;20088;-87
2020/12/19 11:53:17;;;;;;;10.50;3.65;;;6.00;83.60;;;;;;4916443;29;20048;-88
2020/12/19 11:55:45;;;;;;;10.38;4.28;;;6.20;83.20;;;;;;4900963;29;20056;-87
2020/12/19 11:58:20;;;;;;;11.13;3.80;;;6.20;82.70;;;;;;4916178;29;20052;-87
2020/12/19 12:01:02;;;;;;;8.98;4.40;;;6.30;82.40;;;;;;4915736;29;20045;-87
2020/12/19 12:03:33;;;;;;;9.07;3.83;;;6.40;82.00;;;;;;4919257;29;20044;-89
2020/12/19 12:06:01;;;;;;;8.70;3.60;;;6.60;81.30;;;;;;4900047;29;20064;-87
2020/12/19 12:08:30;;;;;;;8.85;3.95;;;7.20;80.00;;;;;;4909651;29;20060;-88
2020/12/19 12:11:02;;;;;;;8.77;3.72;;;7.70;77.80;;;;;;4916694;29;20048;-88
2020/12/19 12:13:33;;;;;;;8.45;3.58;;;7.70;77.00;;;;;;4905592;29;20057;-88
2020/12/19 12:16:08;;;;;;;12.82;5.15;;;7.70;77.20;;;;;;4915627;29;20079;-89
2020/12/19 12:18:36;;;;;;;10.25;4.43;;;8.40;75.20;;;;;;4904877;29;20071;-89
2020/12/19 12:21:04;;;;;;;10.65;3.95;;;9.00;73.00;;;;;;4925593;29;20052;-87
2020/12/19 12:23:33;;;;;;;8.68;4.03;;;8.80;71.50;;;;;;4916232;29;20052;-87
2020/12/19 12:26:03;;;;;;;11.30;4.78;;;8.50;72.70;;;;;;4916276;29;20343;-88
2020/12/19 12:28:30;;;;;;;;;;;8.40;73.20;;;;;;4901310;29;20077;-87
2020/12/19 12:30:57;;;;;;;7.32;3.58;;;8.70;72.20;;;;;;4917272;29;19934;-87
2020/12/19 12:33:25;;;;;;;10.02;4.10;;;8.40;73.20;;;;;;4916986;29;20076;-88
2020/12/19 12:35:57;;;;;;;9.30;4.00;;;8.00;74.20;;;;;;4909231;29;20089;-87
2020/12/19 12:38:32;;;;;;;9.80;4.60;;;8.60;72.30;;;;;;4911231;29;20248;-87
2020/12/19 12:41:06;;;;;;;7.65;3.60;;;8.30;72.70;;;;;;4908687;29;20099;-87
2020/12/19 12:43:44;;;;;;;9.23;4.30;;;8.30;73.30;;;;;;4901586;29;20044;-86
2020/12/19 12:46:13;;;;;;;7.60;4.13;;;8.70;71.40;;;;;;4916574;29;20048;-85
2020/12/19 12:48:45;;;;;;;8.63;4.32;;;9.30;69.40;;;;;;4916973;29;20125;-86
2020/12/19 12:51:15;;;;;;;7.82;3.65;;;10.10;66.80;;;;;;4899474;29;20048;-88
2020/12/19 12:53:50;;;;;;;9.97;4.47;;;10.10;65.30;;;;;;4913524;29;20132;-89
2020/12/19 12:56:22;;;;;;;10.85;4.20;;;10.10;65.60;;;;;;4915534;29;20304;-88
2020/12/19 12:58:49;;;;;;;10.55;4.40;;;10.60;64.00;;;;;;4898188;29;20045;-87
2020/12/19 13:01:18;;;;;;;10.32;4.18;;;10.60;64.40;;;;;;4897065;29;20143;-87
2020/12/19 13:03:53;;;;;;;10.07;4.55;;;10.80;64.00;;;;;;4898499;29;20072;-86
2020/12/19 13:06:21;;;;;;;9.57;4.05;;;10.70;63.00;;;;;;4919199;29;20064;-85
2020/12/19 13:08:53;;;;;;;7.18;3.78;;;10.60;63.10;;;;;;4899261;29;20116;-87
2020/12/19 13:11:24;;;;;;;8.90;4.07;;;10.70;62.00;;;;;;4899120;29;20049;-88
2020/12/19 13:18:49;;;;;;;8.32;3.35;;;9.90;64.80;;;;;;4920571;29;20048;-88
2020/12/19 13:22:17;;;;;;;6.93;3.28;;;8.70;69.20;;;;;;4904862;29;20052;-88
2020/12/19 13:25:35;;;;;;;10.45;3.83;;;8.70;70.10;;;;;;4918434;29;20048;-89
2020/12/19 13:29:13;;;;;;;8.07;3.50;;;8.40;70.60;;;;;;4924057;29;20064;-89
2020/12/19 13:32:53;;;;;;;7.63;4.05;;;7.50;74.60;;;;;;4913578;29;20044;-88
2020/12/19 13:36:42;;;;;;;10.13;3.63;;;7.30;75.70;;;;;;4877201;29;20048;-88
2020/12/19 13:39:52;;;;;;;9.53;4.50;;;7.10;76.60;;;;;;4917987;29;20040;-88
2020/12/19 13:47:02;;;;;;;8.10;3.90;;;6.40;79.50;;;;;;4936491;29;20032;-88
2020/12/19 14:34:33;;;;;;;6.88;3.47;;;5.20;85.90;;;;;;4867305;29;20037;-88
2020/12/19 14:58:26;;;;;;;8.90;3.55;;;5.10;86.50;;;;;;5140267;23;20063;-88
2020/12/19 15:00:54;;;;;;;7.38;3.60;;;5.20;86.10;;;;;;4944538;29;20059;-88
2020/12/19 15:03:22;;;;;;;7.53;3.90;;;5.20;86.30;;;;;;4924587;29;20045;-87
2020/12/19 15:05:51;;;;;;;7.45;3.92;;;5.20;86.40;;;;;;4922494;29;20119;-88
2020/12/19 15:08:24;;;;;;;8.88;4.18;;;5.10;86.70;;;;;;4939426;29;20044;-89
2020/12/19 15:10:56;;;;;;;8.40;4.35;;;5.00;86.70;;;;;;4942126;29;20048;-91
2020/12/19 15:13:37;;;;;;;9.32;4.10;;;5.00;86.90;;;;;;4939815;29;20059;-90
2020/12/19 15:16:16;;;;;;;12.90;4.97;;;5.00;86.80;;;;;;4951184;29;20257;-88
2020/12/19 15:18:45;;;;;;;10.45;5.30;;;5.00;87.10;;;;;;4937244;29;20048;-88
2020/12/19 15:21:19;;;;;;;7.93;3.83;;;5.00;87.20;;;;;;4922257;29;20056;-88
2020/12/19 15:23:54;;;;;;;8.68;3.72;;;5.10;86.90;;;;;;4942227;29;20083;-89